createdAt,value
2023-09-24T00:00:30.438Z,1.4
2023-09-24T00:01:35.506Z,1.6
2023-09-24T00:02:40.549Z,1.6
2023-09-24T00:03:45.568Z,1.4
2023-09-24T00:04:51.260Z,1.5
2023-09-24T00:05:56.561Z,1.5
2023-09-24T00:07:01.422Z,1.5
2023-09-24T00:08:06.361Z,1.5
2023-09-24T00:09:11.167Z,1.6
2023-09-24T00:10:17.392Z,1.6
2023-09-24T00:11:22.308Z,1.5
2023-09-24T00:12:27.492Z,1.5
2023-09-24T00:13:32.511Z,1.5
2023-09-24T00:14:37.488Z,1.9
2023-09-24T00:15:42.472Z,1.7
2023-09-24T00:16:47.348Z,1.5
2023-09-24T00:17:52.406Z,1.6
2023-09-24T00:18:57.272Z,1.6
2023-09-24T00:20:02.210Z,1.6
2023-09-24T00:21:07.366Z,1.4
2023-09-24T00:22:12.280Z,1.6
2023-09-24T00:23:17.209Z,1.5
2023-09-24T00:24:22.207Z,1.5
2023-09-24T00:25:27.053Z,1.4
2023-09-24T00:26:31.940Z,1.6
2023-09-24T00:27:36.880Z,1.5
2023-09-24T00:28:41.856Z,1.5
2023-09-24T00:29:46.808Z,1.4
2023-09-24T00:30:51.810Z,1.3
2023-09-24T00:31:56.666Z,1.5
2023-09-24T00:33:01.678Z,1.6
2023-09-24T00:34:06.717Z,1.5
2023-09-24T00:35:13.919Z,1.5
2023-09-24T00:36:19.948Z,1.6
2023-09-24T00:37:26.096Z,1.5
2023-09-24T00:38:31.040Z,1.5
2023-09-24T00:39:37.083Z,1.6
2023-09-24T00:40:42.018Z,1.4
2023-09-24T00:41:47.005Z,1.5
2023-09-24T00:42:51.905Z,1.5
2023-09-24T00:43:56.947Z,1.5
2023-09-24T00:45:04.433Z,1.3
2023-09-24T00:46:09.811Z,1.6
2023-09-24T00:47:14.605Z,1.5
2023-09-24T00:48:19.726Z,1.6
2023-09-24T00:49:24.587Z,1.4
2023-09-24T00:50:29.491Z,1.8
2023-09-24T00:51:34.563Z,1.6
2023-09-24T00:52:39.614Z,1.5
2023-09-24T00:53:44.596Z,1.8
2023-09-24T00:54:49.450Z,1.6
2023-09-24T00:55:54.346Z,1.6
2023-09-24T00:56:59.295Z,1.5
2023-09-24T00:58:04.279Z,1.4
2023-09-24T00:59:10.242Z,1.4
2023-09-24T01:00:15.144Z,1.4
2023-09-24T01:01:20.200Z,1.6
2023-09-24T01:02:28.284Z,1.8
2023-09-24T01:03:33.404Z,1.7
2023-09-24T01:04:38.146Z,1.7
2023-09-24T01:05:43.138Z,1.5
2023-09-24T01:06:47.986Z,1.4
2023-09-24T01:07:52.954Z,1.7
2023-09-24T01:08:58.038Z,1.4
2023-09-24T01:10:02.923Z,1.7
2023-09-24T01:11:07.997Z,1.8
2023-09-24T01:12:12.939Z,1.6
2023-09-24T01:13:25.383Z,1.5
2023-09-24T01:14:30.420Z,1.7
2023-09-24T01:15:36.519Z,1.5
2023-09-24T01:16:44.170Z,1.7
2023-09-24T01:17:49.514Z,1.6
2023-09-24T01:18:54.333Z,1.4
2023-09-24T01:19:59.279Z,1.6
2023-09-24T01:21:04.158Z,1.7
2023-09-24T01:22:18.285Z,1.7
2023-09-24T01:23:23.322Z,1.7
2023-09-24T01:24:28.377Z,1.7
2023-09-24T01:25:35.688Z,1.6
2023-09-24T01:26:40.705Z,1.6
2023-09-24T01:27:45.709Z,1.4
2023-09-24T01:28:50.809Z,1.4
2023-09-24T01:29:58.507Z,1.7
2023-09-24T01:31:03.589Z,1.4
2023-09-24T01:32:08.714Z,1.4
2023-09-24T01:33:13.785Z,1.7
2023-09-24T01:34:18.900Z,1.6
2023-09-24T01:35:23.657Z,1.5
2023-09-24T01:36:28.639Z,1.4
2023-09-24T01:37:33.582Z,1.3
2023-09-24T01:38:38.576Z,1.6
2023-09-24T01:39:46.071Z,1.7
2023-09-24T01:40:52.292Z,1.5
2023-09-24T01:41:57.469Z,1.5
2023-09-24T01:43:02.412Z,1.4
2023-09-24T01:44:07.322Z,1.6
2023-09-24T01:45:12.298Z,1.6
2023-09-24T01:46:17.324Z,1.4
2023-09-24T01:47:22.339Z,1.4
2023-09-24T01:48:27.261Z,1.7
2023-09-24T01:49:32.095Z,1.5
2023-09-24T01:50:37.074Z,1.5
2023-09-24T01:51:42.064Z,1.5
2023-09-24T01:52:47.020Z,1.5
2023-09-24T01:53:51.951Z,1.6
2023-09-24T01:54:57.213Z,1.6
2023-09-24T01:56:02.289Z,1.5
2023-09-24T01:57:07.229Z,1.3
2023-09-24T01:58:12.109Z,1.5
2023-09-24T01:59:17.074Z,1.5
2023-09-24T02:00:22.033Z,1.5
2023-09-24T02:01:30.003Z,1.5
2023-09-24T02:02:35.177Z,1.4
2023-09-24T02:03:40.183Z,1.4
2023-09-24T02:04:44.890Z,1.8
2023-09-24T02:05:50.028Z,1.5
2023-09-24T02:06:55.010Z,1.6
2023-09-24T02:07:59.886Z,1.6
2023-09-24T02:09:04.805Z,1.5
2023-09-24T02:10:09.699Z,1.5
2023-09-24T02:11:14.634Z,1.8
2023-09-24T02:12:19.647Z,1.7
2023-09-24T02:13:24.559Z,1.6
2023-09-24T02:14:29.549Z,1.4
2023-09-24T02:15:34.778Z,1.5
2023-09-24T02:16:39.578Z,1.5
2023-09-24T02:17:44.625Z,1.8
2023-09-24T02:18:49.688Z,1.9
2023-09-24T02:19:54.556Z,1.6
2023-09-24T02:21:02.161Z,1.5
2023-09-24T02:22:07.095Z,1.5
2023-09-24T02:23:12.014Z,1.6
2023-09-24T02:24:17.105Z,1.8
2023-09-24T02:25:22.001Z,1.4
2023-09-24T02:26:26.975Z,1.6
2023-09-24T02:27:32.052Z,1.7
2023-09-24T02:28:36.960Z,1.4
2023-09-24T02:29:44.592Z,1.8
2023-09-24T02:30:49.624Z,1.5
2023-09-24T02:31:54.393Z,1.7
2023-09-24T02:32:59.445Z,1.7
2023-09-24T02:34:04.562Z,1.5
2023-09-24T02:35:09.549Z,1.8
2023-09-24T02:36:17.453Z,1.5
2023-09-24T02:37:22.464Z,1.8
2023-09-24T02:38:27.438Z,1.8
2023-09-24T02:39:32.313Z,1.8
2023-09-24T02:40:37.312Z,1.5
2023-09-24T02:41:42.220Z,1.7
2023-09-24T02:42:47.326Z,1.7
2023-09-24T02:43:52.274Z,1.6
2023-09-24T02:44:57.377Z,1.7
2023-09-24T02:46:02.303Z,1.8
2023-09-24T02:47:07.238Z,1.6
2023-09-24T02:48:14.737Z,1.8
2023-09-24T02:49:19.722Z,1.7
2023-09-24T02:50:24.676Z,1.6
2023-09-24T02:51:29.614Z,1.6
2023-09-24T02:52:34.639Z,1.9
2023-09-24T02:53:40.424Z,1.5
2023-09-24T02:54:45.656Z,1.7
2023-09-24T02:55:50.672Z,1.7
2023-09-24T02:56:55.664Z,1.8
2023-09-24T02:58:00.610Z,1.8
2023-09-24T02:59:05.587Z,1.8
2023-09-24T03:00:10.738Z,2
2023-09-24T03:01:20.823Z,1.8
2023-09-24T03:02:25.762Z,1.6
2023-09-24T03:03:30.949Z,1.9
2023-09-24T03:04:35.953Z,1.9
2023-09-24T03:05:41.269Z,1.7
2023-09-24T03:06:46.101Z,1.9
2023-09-24T03:07:51.203Z,1.9
2023-09-24T03:08:55.975Z,1.9
2023-09-24T03:10:02.036Z,1.7
2023-09-24T03:11:07.280Z,1.5
2023-09-24T03:12:17.142Z,1.6
2023-09-24T03:13:22.153Z,1.7
2023-09-24T03:14:27.079Z,1.8
2023-09-24T03:15:31.972Z,1.6
2023-09-24T03:16:37.056Z,1.5
2023-09-24T03:17:42.033Z,1.5
2023-09-24T03:18:46.977Z,1.6
2023-09-24T03:19:53.681Z,1.8
2023-09-24T03:21:00.128Z,2
2023-09-24T03:22:05.042Z,2
2023-09-24T03:23:10.487Z,1.9
2023-09-24T03:24:15.030Z,1.8
2023-09-24T03:25:20.009Z,1.9
2023-09-24T03:26:25.085Z,2
2023-09-24T03:27:29.928Z,1.7
2023-09-24T03:28:34.797Z,2
2023-09-24T03:29:39.998Z,1.9
2023-09-24T03:30:44.948Z,2.1
2023-09-24T03:31:50.008Z,1.9
2023-09-24T03:32:55.042Z,2.2
2023-09-24T03:33:59.806Z,1.9
2023-09-24T03:35:04.806Z,2.3
2023-09-24T03:36:10.771Z,2.1
2023-09-24T03:37:15.794Z,1.7
2023-09-24T03:38:20.641Z,2
2023-09-24T03:39:28.434Z,1.9
2023-09-24T03:40:34.425Z,1.8
2023-09-24T03:41:39.374Z,2.4
2023-09-24T03:42:44.345Z,2.1
2023-09-24T03:43:49.684Z,1.8
2023-09-24T03:44:54.200Z,2.1
2023-09-24T03:45:59.211Z,1.9
2023-09-24T03:47:04.080Z,2
2023-09-24T03:48:09.065Z,2
2023-09-24T03:49:13.990Z,2.1
2023-09-24T03:50:18.890Z,2.1
2023-09-24T03:51:23.786Z,2.2
2023-09-24T03:52:28.851Z,2.1
2023-09-24T03:53:33.882Z,2
2023-09-24T03:54:38.823Z,2.3
2023-09-24T03:55:43.726Z,2.3
2023-09-24T03:56:48.686Z,1.9
2023-09-24T03:57:53.652Z,1.9
2023-09-24T03:58:58.607Z,2
2023-09-24T04:00:03.578Z,2.4
2023-09-24T04:01:13.644Z,2.1
2023-09-24T04:02:18.506Z,1.9
2023-09-24T04:03:23.595Z,2.4
2023-09-24T04:04:28.719Z,1.9
2023-09-24T04:05:33.681Z,2
2023-09-24T04:06:38.583Z,2
2023-09-24T04:07:43.551Z,2.1
2023-09-24T04:08:48.636Z,2
2023-09-24T04:09:54.429Z,2
2023-09-24T04:11:48.892Z,2
2023-09-24T04:12:53.760Z,1.9
2023-09-24T04:13:58.322Z,1.9
2023-09-24T04:15:03.211Z,2
2023-09-24T04:16:08.088Z,2.1
2023-09-24T04:17:12.799Z,2.1
2023-09-24T04:18:17.639Z,2.2
2023-09-24T04:19:22.992Z,2.1
2023-09-24T04:20:31.158Z,1.9
2023-09-24T04:21:38.582Z,1.8
2023-09-24T04:22:43.272Z,2.1
2023-09-24T04:23:48.243Z,1.9
2023-09-24T04:24:52.774Z,2.1
2023-09-24T04:25:57.430Z,2.2
2023-09-24T04:27:02.191Z,1.9
2023-09-24T04:28:07.030Z,2.2
2023-09-24T04:29:11.747Z,2.3
2023-09-24T04:30:16.486Z,2
2023-09-24T04:31:21.277Z,2.1
2023-09-24T04:32:26.147Z,2.1
2023-09-24T04:33:30.858Z,2.1
2023-09-24T04:34:35.722Z,2
2023-09-24T04:35:40.571Z,1.9
2023-09-24T04:36:45.584Z,2
2023-09-24T04:37:50.724Z,2.2
2023-09-24T04:38:55.624Z,2.2
2023-09-24T04:40:00.397Z,2
2023-09-24T04:41:05.378Z,2.3
2023-09-24T04:42:10.519Z,2.1
2023-09-24T04:43:15.438Z,2.3
2023-09-24T04:44:20.585Z,2.1
2023-09-24T04:46:30.409Z,2.3
2023-09-24T04:47:35.825Z,2.2
2023-09-24T04:48:43.832Z,2.3
2023-09-24T04:49:48.495Z,2.1
2023-09-24T04:50:53.387Z,2.2
2023-09-24T04:52:01.162Z,2.3
2023-09-24T04:53:06.136Z,2.2
2023-09-24T04:54:11.903Z,2.3
2023-09-24T04:55:16.810Z,2.2
2023-09-24T04:56:21.934Z,2
2023-09-24T04:57:27.018Z,2.1
2023-09-24T04:58:31.990Z,2.3
2023-09-24T04:59:36.880Z,2.1
2023-09-24T05:00:41.815Z,2.6
2023-09-24T05:01:46.770Z,1.9
2023-09-24T05:02:51.759Z,1.9
2023-09-24T05:03:57.192Z,2.1
2023-09-24T05:05:01.858Z,2.1
2023-09-24T05:06:06.973Z,2.3
2023-09-24T05:07:11.950Z,2
2023-09-24T05:08:16.839Z,2.3
2023-09-24T05:09:21.771Z,2.3
2023-09-24T05:10:26.702Z,2.4
2023-09-24T05:11:31.625Z,2.3
2023-09-24T05:12:37.723Z,2.3
2023-09-24T05:13:42.809Z,2.3
2023-09-24T05:14:47.822Z,2.3
2023-09-24T05:15:52.887Z,2.4
2023-09-24T05:17:00.419Z,2.3
2023-09-24T05:18:05.346Z,2.1
2023-09-24T05:19:10.402Z,2.4
2023-09-24T05:20:15.492Z,2.2
2023-09-24T05:21:20.468Z,2.4
2023-09-24T05:22:25.463Z,2.2
2023-09-24T05:23:30.649Z,2.1
2023-09-24T05:24:35.890Z,2.3
2023-09-24T05:25:40.857Z,2.4
2023-09-24T05:26:46.189Z,2.5
2023-09-24T05:27:51.176Z,2.6
2023-09-24T05:28:56.078Z,2.7
2023-09-24T05:30:01.218Z,2.8
2023-09-24T05:31:06.239Z,2.8
2023-09-24T05:32:11.188Z,2.9
2023-09-24T05:33:16.375Z,3.1
2023-09-24T05:34:21.206Z,3
2023-09-24T05:35:26.154Z,3
2023-09-24T05:36:31.380Z,2.9
2023-09-24T05:37:36.367Z,2.7
2023-09-24T05:38:41.604Z,2.7
2023-09-24T05:39:46.536Z,3
2023-09-24T05:40:51.441Z,3.1
2023-09-24T05:41:56.387Z,2.5
2023-09-24T05:43:01.372Z,2.5
2023-09-24T05:44:06.524Z,2.4
2023-09-24T05:45:11.561Z,2.3
2023-09-24T05:46:16.527Z,2.3
2023-09-24T05:47:21.589Z,2.6
2023-09-24T05:48:26.620Z,2.3
2023-09-24T05:49:31.489Z,2.4
2023-09-24T05:50:36.464Z,2.3
2023-09-24T05:51:41.358Z,2.6
2023-09-24T05:52:46.450Z,2.7
2023-09-24T05:53:51.443Z,3.1
2023-09-24T05:54:56.311Z,2.9
2023-09-24T05:56:01.349Z,2.9
2023-09-24T05:57:06.416Z,2.5
2023-09-24T05:58:11.453Z,3
2023-09-24T05:59:16.474Z,2.6
2023-09-24T06:00:21.447Z,2.6
2023-09-24T06:01:26.528Z,2.5
2023-09-24T06:02:31.599Z,2.6
2023-09-24T06:03:36.582Z,2.4
2023-09-24T06:04:41.362Z,2.4
2023-09-24T06:05:46.724Z,2.3
2023-09-24T06:06:51.610Z,2.4
2023-09-24T06:07:56.681Z,2.2
2023-09-24T06:09:01.899Z,2.6
2023-09-24T06:10:09.954Z,2.5
2023-09-24T06:11:15.006Z,2.2
2023-09-24T06:12:20.142Z,2.2
2023-09-24T06:13:25.471Z,2.4
2023-09-24T06:14:30.473Z,2.4
2023-09-24T06:15:35.576Z,3
2023-09-24T06:16:40.620Z,2.4
2023-09-24T06:17:46.700Z,2.3
2023-09-24T06:18:51.854Z,2.4
2023-09-24T06:19:56.759Z,2.4
2023-09-24T06:21:01.687Z,2.6
2023-09-24T06:22:06.770Z,2.6
2023-09-24T06:23:11.805Z,2.6
2023-09-24T06:24:17.962Z,2.7
2023-09-24T06:25:22.818Z,2.5
2023-09-24T06:26:27.799Z,2.6
2023-09-24T06:27:35.760Z,2.2
2023-09-24T06:28:40.762Z,2.4
2023-09-24T06:29:45.771Z,2.5
2023-09-24T06:30:50.683Z,2.4
2023-09-24T06:32:03.532Z,2.2
2023-09-24T06:33:08.765Z,2.2
2023-09-24T06:34:13.911Z,2.6
2023-09-24T06:35:18.972Z,2.1
2023-09-24T06:36:23.999Z,2
2023-09-24T06:37:29.014Z,2
2023-09-24T06:38:35.149Z,2.1
2023-09-24T06:39:39.314Z,2.1
2023-09-24T06:40:44.259Z,2.2
2023-09-24T06:41:49.185Z,2.3
2023-09-24T06:42:54.487Z,2.6
2023-09-24T06:43:59.380Z,2.2
2023-09-24T06:45:04.627Z,2
2023-09-24T06:46:11.147Z,2.1
2023-09-24T06:47:16.415Z,2
2023-09-24T06:48:22.119Z,2.3
2023-09-24T06:49:26.337Z,2.3
2023-09-24T06:50:31.631Z,2.5
2023-09-24T06:51:36.477Z,2.2
2023-09-24T06:52:41.483Z,2.2
2023-09-24T06:53:46.561Z,2.5
2023-09-24T06:54:51.520Z,2.1
2023-09-24T06:55:56.607Z,2.2
2023-09-24T06:57:01.686Z,2.1
2023-09-24T06:58:06.713Z,2.5
2023-09-24T06:59:11.767Z,2.5
2023-09-24T07:00:16.759Z,2.3
2023-09-24T07:01:22.240Z,2.3
2023-09-24T07:02:27.280Z,2.3
2023-09-24T07:03:32.411Z,2.4
2023-09-24T07:04:37.560Z,2.4
2023-09-24T07:05:43.091Z,2.3
2023-09-24T07:06:48.081Z,2.1
2023-09-24T07:07:52.949Z,2.3
2023-09-24T07:08:58.025Z,2.3
2023-09-24T07:10:05.712Z,2.3
2023-09-24T07:11:11.070Z,2.2
2023-09-24T07:12:24.152Z,2.2
2023-09-24T07:13:28.979Z,2.1
2023-09-24T07:14:33.893Z,2.2
2023-09-24T07:15:38.895Z,2.2
2023-09-24T07:16:45.350Z,2.2
2023-09-24T07:17:49.307Z,2.3
2023-09-24T07:18:54.216Z,2.5
2023-09-24T07:19:59.183Z,2.3
2023-09-24T07:21:04.330Z,2.1
2023-09-24T07:22:09.200Z,2.2
2023-09-24T07:23:14.244Z,2.1
2023-09-24T07:24:19.227Z,2.4
2023-09-24T07:25:24.173Z,2.4
2023-09-24T07:26:30.168Z,2
2023-09-24T07:27:35.255Z,2.3
2023-09-24T07:28:40.160Z,2.2
2023-09-24T07:29:46.216Z,2.4
2023-09-24T07:30:51.062Z,2.1
2023-09-24T07:31:55.975Z,2
2023-09-24T07:33:01.061Z,2.2
2023-09-24T07:34:07.179Z,2.2
2023-09-24T07:35:13.177Z,2.2
2023-09-24T07:36:31.019Z,2
2023-09-24T07:37:23.538Z,2.5
2023-09-24T07:38:28.455Z,2.3
2023-09-24T07:39:33.378Z,2.4
2023-09-24T07:40:38.429Z,2.1
2023-09-24T07:41:43.411Z,2.1
2023-09-24T07:42:48.515Z,2.2
2023-09-24T07:43:53.872Z,2.5
2023-09-24T07:44:58.948Z,2.3
2023-09-24T07:46:03.883Z,3.1
2023-09-24T07:47:08.794Z,2.7
2023-09-24T07:48:13.830Z,2.2
2023-09-24T07:49:18.716Z,2.6
2023-09-24T07:50:23.858Z,2.4
2023-09-24T07:51:28.821Z,2.2
2023-09-24T07:52:33.783Z,2.3
2023-09-24T07:53:38.850Z,2.6
2023-09-24T07:54:44.333Z,2.8
2023-09-24T07:55:48.595Z,2.6
2023-09-24T07:56:58.449Z,2.8
2023-09-24T07:58:03.526Z,2.8
2023-09-24T07:59:09.296Z,2.3
2023-09-24T08:00:14.672Z,2.5
2023-09-24T08:01:19.725Z,2.3
2023-09-24T08:02:24.876Z,2.1
2023-09-24T08:03:29.796Z,2.1
2023-09-24T08:04:34.712Z,2.2
2023-09-24T08:05:39.695Z,1.8
2023-09-24T08:06:44.728Z,2.2
2023-09-24T08:07:49.600Z,2.3
2023-09-24T08:09:00.324Z,2.2
2023-09-24T08:09:59.396Z,2.1
2023-09-24T08:11:04.344Z,2.1
2023-09-24T08:12:09.306Z,2
2023-09-24T08:13:14.168Z,1.9
2023-09-24T08:14:19.108Z,2
2023-09-24T08:15:24.378Z,2.1
2023-09-24T08:16:29.490Z,2.2
2023-09-24T08:17:34.367Z,2.1
2023-09-24T08:18:39.736Z,1.7
2023-09-24T08:19:44.597Z,1.7
2023-09-24T08:20:49.532Z,2
2023-09-24T08:21:54.556Z,1.9
2023-09-24T08:22:59.521Z,2
2023-09-24T08:24:04.491Z,2.1
2023-09-24T08:25:09.600Z,2
2023-09-24T08:26:14.480Z,2
2023-09-24T08:27:19.512Z,2.2
2023-09-24T08:28:24.589Z,1.9
2023-09-24T08:29:29.568Z,2.1
2023-09-24T08:30:34.485Z,2.3
2023-09-24T08:31:39.418Z,1.9
2023-09-24T08:32:44.430Z,2
2023-09-24T08:33:50.081Z,2.1
2023-09-24T08:34:54.793Z,1.9
2023-09-24T08:35:59.791Z,2
2023-09-24T08:37:05.170Z,2.4
2023-09-24T08:38:10.060Z,2.4
2023-09-24T08:39:14.957Z,2.1
2023-09-24T08:40:19.944Z,2.1
2023-09-24T08:41:24.998Z,2.2
2023-09-24T08:42:30.136Z,2.1
2023-09-24T08:43:35.310Z,2.2
2023-09-24T08:44:40.314Z,2.2
2023-09-24T08:45:45.224Z,2.1
2023-09-24T08:46:50.435Z,2
2023-09-24T08:47:56.186Z,2
2023-09-24T08:49:01.420Z,2.1
2023-09-24T08:50:06.872Z,2.1
2023-09-24T08:51:12.260Z,2
2023-09-24T08:52:17.197Z,2
2023-09-24T08:53:22.128Z,2
2023-09-24T08:54:27.252Z,1.8
2023-09-24T08:55:32.511Z,1.9
2023-09-24T08:56:37.735Z,2.2
2023-09-24T08:57:42.897Z,2.1
2023-09-24T08:58:48.221Z,2.2
2023-09-24T08:59:53.092Z,2.2
2023-09-24T09:00:58.092Z,2.1
2023-09-24T09:02:03.063Z,2
2023-09-24T09:03:08.048Z,2.2
2023-09-24T09:04:13.068Z,1.9
2023-09-24T09:05:17.983Z,2.2
2023-09-24T09:06:25.466Z,1.9
2023-09-24T09:07:38.269Z,2
2023-09-24T09:08:53.870Z,2.1
2023-09-24T09:09:58.118Z,2.1
2023-09-24T09:11:06.185Z,1.9
2023-09-24T09:12:11.144Z,2.2
2023-09-24T09:13:21.031Z,2.1
2023-09-24T09:14:26.029Z,2.1
2023-09-24T09:15:36.083Z,1.9
2023-09-24T09:16:43.817Z,2.1
2023-09-24T09:17:58.792Z,2.1
2023-09-24T09:19:06.600Z,1.9
2023-09-24T09:20:11.615Z,2.2
2023-09-24T09:21:16.717Z,2
2023-09-24T09:22:29.352Z,2
2023-09-24T09:23:37.502Z,1.9
2023-09-24T09:24:40.642Z,2
2023-09-24T09:25:45.734Z,1.8
2023-09-24T09:26:53.563Z,2
2023-09-24T09:27:58.527Z,1.9
2023-09-24T09:29:03.426Z,2.2
2023-09-24T09:30:08.555Z,2.1
2023-09-24T09:31:16.509Z,2.1
2023-09-24T09:32:21.872Z,2.1
2023-09-24T09:33:26.967Z,2.2
2023-09-24T09:34:31.963Z,2.4
2023-09-24T09:35:37.107Z,2.2
2023-09-24T09:36:41.958Z,1.9
2023-09-24T09:37:46.992Z,1.9
2023-09-24T09:38:51.934Z,1.6
2023-09-24T09:39:56.809Z,2
2023-09-24T09:41:01.722Z,1.9
2023-09-24T09:42:06.635Z,2.1
2023-09-24T09:43:12.252Z,1.9
2023-09-24T09:44:17.465Z,2.2
2023-09-24T09:45:22.418Z,2.3
2023-09-24T09:46:27.697Z,2.3
2023-09-24T09:47:32.968Z,1.7
2023-09-24T09:48:48.772Z,1.8
2023-09-24T09:49:58.661Z,2.2
2023-09-24T09:51:03.672Z,1.9
2023-09-24T09:52:08.642Z,2.1
2023-09-24T09:53:13.611Z,2
2023-09-24T09:54:19.135Z,1.9
2023-09-24T09:55:24.081Z,2.2
2023-09-24T09:56:29.074Z,1.9
2023-09-24T09:57:34.156Z,1.9
2023-09-24T09:58:39.503Z,2.1
2023-09-24T09:59:44.517Z,2.2
2023-09-24T10:00:49.466Z,2.2
2023-09-24T10:01:54.523Z,2
2023-09-24T10:02:59.522Z,1.8
2023-09-24T10:04:04.438Z,1.9
2023-09-24T10:05:09.503Z,1.9
2023-09-24T10:06:14.426Z,2.1
2023-09-24T10:07:19.457Z,2.3
2023-09-24T10:08:24.575Z,2
2023-09-24T10:09:39.401Z,1.9
2023-09-24T10:10:44.445Z,2.2
2023-09-24T10:11:49.444Z,2
2023-09-24T10:12:54.338Z,2.4
2023-09-24T10:13:59.424Z,2
2023-09-24T10:15:04.307Z,2.1
2023-09-24T10:16:19.235Z,1.9
2023-09-24T10:17:29.295Z,1.7
2023-09-24T10:18:34.227Z,1.8
2023-09-24T10:19:39.165Z,1.9
2023-09-24T10:20:51.709Z,1.8
2023-09-24T10:22:02.324Z,1.8
2023-09-24T10:23:07.268Z,1.7
2023-09-24T10:24:22.048Z,1.9
2023-09-24T10:25:27.148Z,1.9
2023-09-24T10:26:34.885Z,2.1
2023-09-24T10:27:58.256Z,1.8
2023-09-24T10:29:02.430Z,2
2023-09-24T10:30:07.561Z,2.1
2023-09-24T10:31:12.583Z,1.9
2023-09-24T10:32:17.621Z,1.4
2023-09-24T10:33:22.779Z,1.9
2023-09-24T10:34:37.531Z,2.1
2023-09-24T10:35:52.356Z,1.7
2023-09-24T10:37:08.303Z,1.9
2023-09-24T10:38:14.950Z,1.9
2023-09-24T10:39:18.321Z,1.7
2023-09-24T10:40:23.583Z,2.3
2023-09-24T10:41:28.723Z,1.8
2023-09-24T10:42:33.714Z,1.8
2023-09-24T10:43:38.831Z,2.3
2023-09-24T10:44:44.711Z,1.7
2023-09-24T10:45:50.082Z,1.8
2023-09-24T10:46:56.893Z,1.8
2023-09-24T10:48:00.631Z,1.7
2023-09-24T10:49:05.882Z,1.7
2023-09-24T10:50:08.861Z,1.7
2023-09-24T10:51:21.878Z,2
2023-09-24T10:52:27.473Z,1.9
2023-09-24T10:53:32.478Z,1.7
2023-09-24T10:54:37.550Z,1.9
2023-09-24T10:55:44.075Z,1.9
2023-09-24T10:56:47.737Z,1.6
2023-09-24T10:57:52.676Z,1.8
2023-09-24T10:58:57.607Z,1.7
2023-09-24T11:00:02.637Z,1.7
2023-09-24T11:01:08.100Z,2
2023-09-24T11:02:13.189Z,1.7
2023-09-24T11:03:20.925Z,1.8
2023-09-24T11:04:26.388Z,1.8
2023-09-24T11:05:31.208Z,1.8
2023-09-24T11:06:43.836Z,2.4
2023-09-24T11:07:48.883Z,1.8
2023-09-24T11:08:54.947Z,1.5
2023-09-24T11:09:59.909Z,1.8
2023-09-24T11:11:04.958Z,2
2023-09-24T11:12:09.932Z,2.1
2023-09-24T11:13:14.721Z,1.9
2023-09-24T11:14:19.716Z,1.9
2023-09-24T11:15:28.255Z,1.7
2023-09-24T11:16:36.164Z,1.5
2023-09-24T11:17:41.303Z,1.7
2023-09-24T11:18:46.309Z,1.6
2023-09-24T11:19:51.150Z,1.8
2023-09-24T11:20:56.272Z,1.7
2023-09-24T11:22:02.729Z,1.5
2023-09-24T11:23:17.459Z,1.6
2023-09-24T11:24:22.408Z,1.6
2023-09-24T11:25:27.470Z,1.4
2023-09-24T11:26:32.480Z,1.6
2023-09-24T11:27:37.371Z,2.2
2023-09-24T11:28:52.185Z,1.7
2023-09-24T11:29:57.149Z,1.6
2023-09-24T11:31:02.239Z,1.8
2023-09-24T11:32:07.173Z,1.7
2023-09-24T11:33:13.191Z,1.8
2023-09-24T11:34:18.018Z,1.7
2023-09-24T11:35:26.033Z,1.6
2023-09-24T11:36:31.087Z,1.4
2023-09-24T11:37:36.022Z,1.3
2023-09-24T11:38:48.835Z,1.3
2023-09-24T11:39:53.530Z,1.2
2023-09-24T11:40:58.568Z,1.4
2023-09-24T11:42:14.429Z,1.8
2023-09-24T11:43:22.663Z,1.5
2023-09-24T11:44:28.005Z,1.6
2023-09-24T11:45:33.107Z,1.6
2023-09-24T11:46:43.035Z,1.4
2023-09-24T11:47:48.235Z,1.6
2023-09-24T11:48:53.619Z,1.3
2023-09-24T11:49:58.206Z,1.7
2023-09-24T11:51:03.338Z,1.8
2023-09-24T11:52:08.373Z,1.7
2023-09-24T11:53:16.508Z,1.7
2023-09-24T11:54:22.718Z,2.1
2023-09-24T11:55:27.667Z,1.8
2023-09-24T11:56:32.861Z,1.6
2023-09-24T11:57:37.870Z,1.6
2023-09-24T11:58:43.131Z,1.2
2023-09-24T11:59:48.241Z,1.4
2023-09-24T12:00:53.350Z,1.9
2023-09-24T12:01:58.346Z,1.6
2023-09-24T12:03:03.628Z,1.6
2023-09-24T12:04:08.530Z,1.7
2023-09-24T12:05:22.888Z,1.5
2023-09-24T12:06:18.201Z,1.6
2023-09-24T12:07:22.966Z,1.3
2023-09-24T12:08:27.676Z,1.4
2023-09-24T12:09:32.603Z,1.2
2023-09-24T12:10:37.281Z,1.2
2023-09-24T12:11:42.040Z,1.2
2023-09-24T12:12:47.082Z,1.2
2023-09-24T12:13:51.849Z,1.2
2023-09-24T12:14:56.682Z,1.2
2023-09-24T12:16:01.579Z,1.3
2023-09-24T12:17:06.381Z,1.3
2023-09-24T12:18:11.294Z,1.5
2023-09-24T12:19:16.460Z,1.4
2023-09-24T12:20:21.617Z,1.3
2023-09-24T12:21:29.470Z,1.4
2023-09-24T12:22:34.640Z,1.3
2023-09-24T12:23:39.794Z,1.5
2023-09-24T12:24:44.895Z,1.5
2023-09-24T12:25:49.807Z,1.4
2023-09-24T12:26:54.847Z,1.4
2023-09-24T12:27:59.805Z,1.2
2023-09-24T12:29:04.868Z,1.5
2023-09-24T12:30:09.978Z,1.3
2023-09-24T12:31:15.081Z,1.3
2023-09-24T12:32:20.017Z,1.4
2023-09-24T12:33:25.306Z,1.3
2023-09-24T12:34:30.122Z,1.4
2023-09-24T12:35:35.007Z,1.5
2023-09-24T12:36:40.317Z,1.4
2023-09-24T12:37:45.264Z,1.4
2023-09-24T12:38:50.402Z,1.2
2023-09-24T12:39:56.151Z,1.3
2023-09-24T12:41:02.294Z,1.2
2023-09-24T12:42:07.270Z,1.3
2023-09-24T12:43:12.347Z,1.2
2023-09-24T12:44:17.301Z,1.2
2023-09-24T12:45:22.304Z,1.2
2023-09-24T12:46:27.270Z,1.4
2023-09-24T12:47:32.326Z,1.9
2023-09-24T12:48:37.430Z,1.4
2023-09-24T12:49:42.270Z,1.3
2023-09-24T12:50:47.217Z,1.3
2023-09-24T12:51:52.174Z,1.2
2023-09-24T12:52:57.101Z,1.3
2023-09-24T12:54:02.253Z,1.2
2023-09-24T12:55:08.322Z,1.3
2023-09-24T12:56:13.315Z,1.3
2023-09-24T12:57:18.268Z,1.4
2023-09-24T12:58:24.040Z,1.2
2023-09-24T12:59:28.166Z,1.4
2023-09-24T13:00:34.058Z,1.2
2023-09-24T13:01:39.110Z,1.4
2023-09-24T13:02:44.101Z,1.4
2023-09-24T13:03:49.120Z,1.4
2023-09-24T13:04:54.013Z,1.3
2023-09-24T13:05:59.056Z,1.4
2023-09-24T13:07:04.078Z,1.2
2023-09-24T13:08:09.233Z,1.4
2023-09-24T13:09:14.203Z,1.2
2023-09-24T13:10:22.252Z,1.3
2023-09-24T13:11:28.007Z,1.4
2023-09-24T13:12:32.353Z,1.6
2023-09-24T13:13:37.356Z,1.2
2023-09-24T13:14:42.393Z,1.2
2023-09-24T13:15:47.554Z,1.5
2023-09-24T13:16:52.429Z,1.3
2023-09-24T13:17:57.647Z,1.3
2023-09-24T13:19:03.659Z,1.2
2023-09-24T13:20:07.524Z,1.2
2023-09-24T13:21:12.524Z,1.1
2023-09-24T13:22:17.421Z,1.3
2023-09-24T13:23:22.636Z,1.6
2023-09-24T13:24:27.723Z,1.3
2023-09-24T13:25:32.679Z,1.5
2023-09-24T13:26:37.778Z,1.4
2023-09-24T13:27:42.767Z,1.4
2023-09-24T13:28:47.801Z,1.7
2023-09-24T13:29:52.880Z,1.4
2023-09-24T13:30:57.815Z,1.4
2023-09-24T13:32:03.652Z,1.2
2023-09-24T13:33:07.780Z,1.4
2023-09-24T13:34:13.359Z,1.3
2023-09-24T13:35:18.290Z,1.2
2023-09-24T13:36:23.308Z,1.3
2023-09-24T13:37:28.456Z,1.4
2023-09-24T13:38:36.261Z,1.4
2023-09-24T13:39:41.243Z,1.4
2023-09-24T13:40:46.255Z,1.4
2023-09-24T13:41:51.257Z,1.5
2023-09-24T13:42:56.238Z,1.6
2023-09-24T13:44:01.133Z,1.2
2023-09-24T13:45:06.509Z,1.2
2023-09-24T13:46:11.814Z,1.2
2023-09-24T13:47:16.611Z,1.4
2023-09-24T13:48:21.834Z,1.3
2023-09-24T13:49:26.709Z,1.4
2023-09-24T13:50:31.757Z,1.6
2023-09-24T13:51:37.077Z,1.5
2023-09-24T13:52:42.159Z,1.2
2023-09-24T13:53:47.401Z,1.6
2023-09-24T13:54:52.303Z,1.4
2023-09-24T13:55:57.396Z,1.3
2023-09-24T13:57:02.470Z,1.4
2023-09-24T13:58:07.351Z,1.5
2023-09-24T13:59:12.216Z,1.3
2023-09-24T14:00:17.260Z,1.6
2023-09-24T14:01:22.343Z,1.2
2023-09-24T14:02:27.433Z,1.3
2023-09-24T14:03:32.539Z,1.6
2023-09-24T14:04:37.353Z,1.4
2023-09-24T14:05:43.472Z,1.4
2023-09-24T14:06:48.458Z,1.5
2023-09-24T14:07:53.333Z,1.4
2023-09-24T14:08:58.318Z,1.4
2023-09-24T14:10:08.168Z,1.5
2023-09-24T14:11:18.075Z,1.7
2023-09-24T14:12:28.019Z,1.5
2023-09-24T14:13:32.985Z,1.5
2023-09-24T14:14:37.870Z,1.4
2023-09-24T14:15:42.930Z,1.4
2023-09-24T14:16:49.316Z,1.4
2023-09-24T14:18:07.526Z,1.4
2023-09-24T14:18:59.454Z,1.6
2023-09-24T14:20:04.338Z,1.3
2023-09-24T14:21:10.773Z,1.3
2023-09-24T14:22:15.830Z,1.4
2023-09-24T14:23:20.851Z,1.2
2023-09-24T14:24:25.938Z,1.9
2023-09-24T14:25:30.933Z,1.3
2023-09-24T14:26:36.167Z,1.3
2023-09-24T14:27:41.204Z,1.3
2023-09-24T14:28:46.443Z,1.2
2023-09-24T14:29:51.284Z,1.2
2023-09-24T14:30:56.449Z,1
2023-09-24T14:32:01.425Z,1.4
2023-09-24T14:33:06.673Z,1.2
2023-09-24T14:34:11.574Z,1.1
2023-09-24T14:35:16.630Z,1.2
2023-09-24T14:36:21.646Z,1.1
2023-09-24T14:37:26.658Z,1.3
2023-09-24T14:38:31.592Z,1.3
2023-09-24T14:39:36.725Z,1.3
2023-09-24T14:40:41.621Z,1.3
2023-09-24T14:41:46.582Z,1.2
2023-09-24T14:42:51.601Z,1.6
2023-09-24T14:43:56.554Z,1.2
2023-09-24T14:45:02.735Z,1.4
2023-09-24T14:46:08.106Z,1.3
2023-09-24T14:47:13.094Z,1.3
2023-09-24T14:48:18.193Z,1.4
2023-09-24T14:49:23.190Z,1.1
2023-09-24T14:50:28.085Z,1.2
2023-09-24T14:51:33.183Z,1.3
2023-09-24T14:52:38.032Z,1.6
2023-09-24T14:53:43.074Z,1.1
2023-09-24T14:54:49.085Z,1.3
2023-09-24T14:55:54.410Z,1.3
2023-09-24T14:56:59.391Z,1.3
2023-09-24T14:58:04.379Z,1.3
2023-09-24T14:59:09.234Z,1.3
2023-09-24T15:00:14.269Z,1.3
2023-09-24T15:01:19.472Z,1.3
2023-09-24T15:02:24.373Z,1.2
2023-09-24T15:03:29.370Z,1.1
2023-09-24T15:04:34.706Z,1.1
2023-09-24T15:05:39.633Z,1.3
2023-09-24T15:06:46.938Z,1.2
2023-09-24T15:07:49.652Z,1.3
2023-09-24T15:08:54.686Z,1.1